sensor_id;sensor_type;location;lat;lon;timestamp;P1;durP1;ratioP1;P2;durP2;ratioP2
25449;SDS011;13371;52.080;5.624;2023-03-21T00:01:03;15.18;;;7.57;;
25449;SDS011;13371;52.080;5.624;2023-03-21T00:03:30;16.30;;;9.32;;
25449;SDS011;13371;52.080;5.624;2023-03-21T00:05:57;14.20;;;8.18;;
25449;SDS011;13371;52.080;5.624;2023-03-21T00:08:24;16.92;;;9.35;;
25449;SDS011;13371;52.080;5.624;2023-03-21T00:10:54;15.20;;;8.77;;
25449;SDS011;13371;52.080;5.624;2023-03-21T00:13:21;14.40;;;7.53;;
25449;SDS011;13371;52.080;5.624;2023-03-21T00:15:46;16.58;;;7.78;;
25449;SDS011;13371;52.080;5.624;2023-03-21T00:18:15;16.63;;;7.97;;
25449;SDS011;13371;52.080;5.624;2023-03-21T00:20:41;14.90;;;8.30;;
25449;SDS011;13371;52.080;5.624;2023-03-21T00:23:10;16.70;;;7.90;;
25449;SDS011;13371;52.080;5.624;2023-03-21T00:25:36;13.43;;;6.95;;
25449;SDS011;13371;52.080;5.624;2023-03-21T00:28:01;16.48;;;8.27;;
25449;SDS011;13371;52.080;5.624;2023-03-21T00:30:27;17.35;;;7.82;;
25449;SDS011;13371;52.080;5.624;2023-03-21T00:32:53;14.60;;;6.90;;
25449;SDS011;13371;52.080;5.624;2023-03-21T00:35:18;14.52;;;8.18;;
25449;SDS011;13371;52.080;5.624;2023-03-21T00:37:44;12.63;;;6.70;;
25449;SDS011;13371;52.080;5.624;2023-03-21T00:40:10;16.23;;;7.55;;
25449;SDS011;13371;52.080;5.624;2023-03-21T00:42:37;16.60;;;8.00;;
25449;SDS011;13371;52.080;5.624;2023-03-21T00:45:03;12.68;;;7.07;;
25449;SDS011;13371;52.080;5.624;2023-03-21T00:47:30;13.35;;;7.32;;
25449;SDS011;13371;52.080;5.624;2023-03-21T00:49:56;17.88;;;8.73;;
25449;SDS011;13371;52.080;5.624;2023-03-21T00:52:21;16.40;;;8.57;;
25449;SDS011;13371;52.080;5.624;2023-03-21T00:54:47;19.48;;;7.22;;
25449;SDS011;13371;52.080;5.624;2023-03-21T00:57:12;17.08;;;8.90;;
25449;SDS011;13371;52.080;5.624;2023-03-21T00:59:38;14.18;;;8.05;;
25449;SDS011;13371;52.080;5.624;2023-03-21T01:02:04;18.20;;;9.40;;
25449;SDS011;13371;52.080;5.624;2023-03-21T01:04:31;16.40;;;9.02;;
25449;SDS011;13371;52.080;5.624;2023-03-21T01:07:00;20.60;;;9.57;;
25449;SDS011;13371;52.080;5.624;2023-03-21T01:09:26;15.68;;;9.05;;
25449;SDS011;13371;52.080;5.624;2023-03-21T01:11:52;18.75;;;9.82;;
25449;SDS011;13371;52.080;5.624;2023-03-21T01:14:19;18.67;;;9.68;;
25449;SDS011;13371;52.080;5.624;2023-03-21T01:16:46;22.05;;;9.27;;
25449;SDS011;13371;52.080;5.624;2023-03-21T01:19:13;19.52;;;10.07;;
25449;SDS011;13371;52.080;5.624;2023-03-21T01:21:40;22.48;;;8.77;;
25449;SDS011;13371;52.080;5.624;2023-03-21T01:24:07;19.02;;;9.60;;
25449;SDS011;13371;52.080;5.624;2023-03-21T01:26:33;20.33;;;9.85;;
25449;SDS011;13371;52.080;5.624;2023-03-21T01:28:58;18.33;;;9.93;;
25449;SDS011;13371;52.080;5.624;2023-03-21T01:31:24;18.63;;;9.70;;
25449;SDS011;13371;52.080;5.624;2023-03-21T01:33:50;19.35;;;10.43;;
25449;SDS011;13371;52.080;5.624;2023-03-21T01:36:16;19.77;;;9.75;;
25449;SDS011;13371;52.080;5.624;2023-03-21T01:38:45;23.00;;;11.32;;
25449;SDS011;13371;52.080;5.624;2023-03-21T01:41:25;23.75;;;10.38;;
25449;SDS011;13371;52.080;5.624;2023-03-21T01:43:51;19.73;;;10.52;;
25449;SDS011;13371;52.080;5.624;2023-03-21T01:51:38;21.83;;;11.52;;
25449;SDS011;13371;52.080;5.624;2023-03-21T01:54:08;23.48;;;10.73;;
25449;SDS011;13371;52.080;5.624;2023-03-21T01:56:39;24.75;;;11.20;;
25449;SDS011;13371;52.080;5.624;2023-03-21T01:59:10;20.35;;;11.23;;
25449;SDS011;13371;52.080;5.624;2023-03-21T02:01:41;22.85;;;10.43;;
25449;SDS011;13371;52.080;5.624;2023-03-21T02:04:08;21.30;;;9.93;;
25449;SDS011;13371;52.080;5.624;2023-03-21T02:09:07;23.55;;;9.80;;
25449;SDS011;13371;52.080;5.624;2023-03-21T02:11:36;22.63;;;11.05;;
25449;SDS011;13371;52.080;5.624;2023-03-21T02:14:02;18.60;;;10.93;;
25449;SDS011;13371;52.080;5.624;2023-03-21T02:16:32;21.83;;;10.05;;
25449;SDS011;13371;52.080;5.624;2023-03-21T02:27:12;18.42;;;9.93;;
25449;SDS011;13371;52.080;5.624;2023-03-21T02:32:58;19.48;;;9.85;;
25449;SDS011;13371;52.080;5.624;2023-03-21T02:40:52;24.98;;;11.98;;
25449;SDS011;13371;52.080;5.624;2023-03-21T02:48:25;24.23;;;11.27;;
25449;SDS011;13371;52.080;5.624;2023-03-21T02:50:57;21.38;;;9.85;;
25449;SDS011;13371;52.080;5.624;2023-03-21T02:53:27;22.15;;;10.27;;
25449;SDS011;13371;52.080;5.624;2023-03-21T02:55:57;23.08;;;9.65;;
25449;SDS011;13371;52.080;5.624;2023-03-21T02:58:24;18.27;;;10.25;;
25449;SDS011;13371;52.080;5.624;2023-03-21T03:00:52;19.35;;;10.18;;
25449;SDS011;13371;52.080;5.624;2023-03-21T03:03:22;21.67;;;9.25;;
25449;SDS011;13371;52.080;5.624;2023-03-21T03:05:52;17.65;;;9.90;;
25449;SDS011;13371;52.080;5.624;2023-03-21T03:11:06;17.65;;;9.10;;
25449;SDS011;13371;52.080;5.624;2023-03-21T03:14:00;15.63;;;9.15;;
25449;SDS011;13371;52.080;5.624;2023-03-21T03:17:04;21.27;;;9.30;;
25449;SDS011;13371;52.080;5.624;2023-03-21T03:19:47;20.25;;;10.68;;
25449;SDS011;13371;52.080;5.624;2023-03-21T03:25:18;17.35;;;9.38;;
25449;SDS011;13371;52.080;5.624;2023-03-21T03:27:48;19.42;;;10.18;;
25449;SDS011;13371;52.080;5.624;2023-03-21T03:30:18;22.05;;;10.50;;
25449;SDS011;13371;52.080;5.624;2023-03-21T03:32:45;20.42;;;11.43;;
25449;SDS011;13371;52.080;5.624;2023-03-21T03:35:16;18.48;;;9.43;;
25449;SDS011;13371;52.080;5.624;2023-03-21T03:37:44;20.25;;;10.35;;
25449;SDS011;13371;52.080;5.624;2023-03-21T03:40:14;22.40;;;10.57;;
25449;SDS011;13371;52.080;5.624;2023-03-21T03:42:46;19.80;;;10.93;;
25449;SDS011;13371;52.080;5.624;2023-03-21T03:45:16;20.33;;;9.70;;
25449;SDS011;13371;52.080;5.624;2023-03-21T03:47:49;25.77;;;11.07;;
25449;SDS011;13371;52.080;5.624;2023-03-21T03:50:26;23.17;;;11.40;;
25449;SDS011;13371;52.080;5.624;2023-03-21T03:52:59;17.38;;;9.55;;
25449;SDS011;13371;52.080;5.624;2023-03-21T03:55:32;22.17;;;10.57;;
25449;SDS011;13371;52.080;5.624;2023-03-21T03:57:59;23.20;;;10.23;;
25449;SDS011;13371;52.080;5.624;2023-03-21T04:00:26;16.48;;;9.20;;
25449;SDS011;13371;52.080;5.624;2023-03-21T04:02:56;22.23;;;10.70;;
25449;SDS011;13371;52.080;5.624;2023-03-21T04:05:23;22.52;;;11.05;;
25449;SDS011;13371;52.080;5.624;2023-03-21T04:07:49;26.65;;;11.30;;
25449;SDS011;13371;52.080;5.624;2023-03-21T04:10:15;22.35;;;11.90;;
25449;SDS011;13371;52.080;5.624;2023-03-21T04:12:41;20.30;;;10.70;;
25449;SDS011;13371;52.080;5.624;2023-03-21T04:15:07;20.65;;;10.38;;
25449;SDS011;13371;52.080;5.624;2023-03-21T04:17:33;20.13;;;10.52;;
25449;SDS011;13371;52.080;5.624;2023-03-21T04:19:59;19.33;;;10.38;;
25449;SDS011;13371;52.080;5.624;2023-03-21T04:22:24;22.30;;;10.57;;
25449;SDS011;13371;52.080;5.624;2023-03-21T04:24:50;20.85;;;10.43;;
25449;SDS011;13371;52.080;5.624;2023-03-21T04:27:17;17.88;;;9.68;;
25449;SDS011;13371;52.080;5.624;2023-03-21T04:29:43;21.98;;;10.00;;
25449;SDS011;13371;52.080;5.624;2023-03-21T04:32:08;19.75;;;8.45;;
25449;SDS011;13371;52.080;5.624;2023-03-21T04:34:40;18.52;;;8.82;;
25449;SDS011;13371;52.080;5.624;2023-03-21T04:37:07;20.65;;;9.30;;
25449;SDS011;13371;52.080;5.624;2023-03-21T04:39:35;17.70;;;9.50;;
25449;SDS011;13371;52.080;5.624;2023-03-21T04:42:02;18.42;;;8.88;;
25449;SDS011;13371;52.080;5.624;2023-03-21T04:44:28;22.48;;;8.98;;
25449;SDS011;13371;52.080;5.624;2023-03-21T04:46:54;20.48;;;8.38;;
25449;SDS011;13371;52.080;5.624;2023-03-21T04:49:20;13.40;;;7.72;;
25449;SDS011;13371;52.080;5.624;2023-03-21T04:51:46;20.00;;;7.88;;
25449;SDS011;13371;52.080;5.624;2023-03-21T04:54:11;18.52;;;8.27;;
25449;SDS011;13371;52.080;5.624;2023-03-21T04:56:37;23.50;;;7.53;;
25449;SDS011;13371;52.080;5.624;2023-03-21T04:59:13;16.83;;;7.47;;
25449;SDS011;13371;52.080;5.624;2023-03-21T05:01:39;16.00;;;6.80;;
25449;SDS011;13371;52.080;5.624;2023-03-21T05:04:07;14.85;;;6.10;;
25449;SDS011;13371;52.080;5.624;2023-03-21T05:06:34;16.40;;;6.68;;
25449;SDS011;13371;52.080;5.624;2023-03-21T05:09:00;14.40;;;6.60;;
25449;SDS011;13371;52.080;5.624;2023-03-21T05:11:31;12.63;;;5.05;;
25449;SDS011;13371;52.080;5.624;2023-03-21T05:14:01;12.60;;;5.57;;
25449;SDS011;13371;52.080;5.624;2023-03-21T05:16:30;13.23;;;5.47;;
25449;SDS011;13371;52.080;5.624;2023-03-21T05:18:56;12.63;;;5.55;;
25449;SDS011;13371;52.080;5.624;2023-03-21T05:21:29;12.63;;;5.72;;
25449;SDS011;13371;52.080;5.624;2023-03-21T05:23:58;15.63;;;6.00;;
25449;SDS011;13371;52.080;5.624;2023-03-21T05:26:27;11.38;;;5.75;;
25449;SDS011;13371;52.080;5.624;2023-03-21T05:28:54;13.25;;;6.40;;
25449;SDS011;13371;52.080;5.624;2023-03-21T05:31:19;12.75;;;6.05;;
25449;SDS011;13371;52.080;5.624;2023-03-21T05:33:46;9.25;;;4.93;;
25449;SDS011;13371;52.080;5.624;2023-03-21T05:36:12;12.57;;;5.65;;
25449;SDS011;13371;52.080;5.624;2023-03-21T05:38:39;13.75;;;5.85;;
25449;SDS011;13371;52.080;5.624;2023-03-21T05:41:10;9.52;;;5.57;;
25449;SDS011;13371;52.080;5.624;2023-03-21T05:43:36;17.15;;;6.18;;
25449;SDS011;13371;52.080;5.624;2023-03-21T05:46:02;12.35;;;5.97;;
25449;SDS011;13371;52.080;5.624;2023-03-21T05:48:27;12.07;;;5.57;;
25449;SDS011;13371;52.080;5.624;2023-03-21T05:50:53;15.35;;;5.45;;
25449;SDS011;13371;52.080;5.624;2023-03-21T05:53:19;12.75;;;5.93;;
25449;SDS011;13371;52.080;5.624;2023-03-21T05:55:44;10.32;;;5.97;;
25449;SDS011;13371;52.080;5.624;2023-03-21T05:58:10;15.88;;;4.88;;
25449;SDS011;13371;52.080;5.624;2023-03-21T06:00:36;15.43;;;6.85;;
25449;SDS011;13371;52.080;5.624;2023-03-21T06:03:01;12.70;;;5.22;;
25449;SDS011;13371;52.080;5.624;2023-03-21T06:05:27;9.35;;;5.22;;
25449;SDS011;13371;52.080;5.624;2023-03-21T06:07:53;14.70;;;6.53;;
25449;SDS011;13371;52.080;5.624;2023-03-21T06:10:18;14.00;;;5.90;;
25449;SDS011;13371;52.080;5.624;2023-03-21T06:12:44;11.55;;;5.72;;
25449;SDS011;13371;52.080;5.624;2023-03-21T06:15:10;13.98;;;5.35;;
25449;SDS011;13371;52.080;5.624;2023-03-21T06:17:35;10.55;;;5.68;;
25449;SDS011;13371;52.080;5.624;2023-03-21T06:20:01;11.63;;;5.20;;
25449;SDS011;13371;52.080;5.624;2023-03-21T06:22:29;12.30;;;5.45;;
25449;SDS011;13371;52.080;5.624;2023-03-21T06:24:55;13.35;;;5.97;;
25449;SDS011;13371;52.080;5.624;2023-03-21T06:27:21;12.20;;;5.22;;
25449;SDS011;13371;52.080;5.624;2023-03-21T06:29:46;13.00;;;5.15;;
25449;SDS011;13371;52.080;5.624;2023-03-21T06:32:12;14.15;;;5.40;;
25449;SDS011;13371;52.080;5.624;2023-03-21T06:34:38;12.43;;;5.38;;
25449;SDS011;13371;52.080;5.624;2023-03-21T06:37:03;10.80;;;4.75;;
25449;SDS011;13371;52.080;5.624;2023-03-21T06:39:29;15.00;;;5.20;;
25449;SDS011;13371;52.080;5.624;2023-03-21T06:41:56;12.57;;;5.78;;
25449;SDS011;13371;52.080;5.624;2023-03-21T06:44:22;13.13;;;5.95;;
25449;SDS011;13371;52.080;5.624;2023-03-21T06:46:48;18.85;;;6.03;;
25449;SDS011;13371;52.080;5.624;2023-03-21T06:49:18;19.23;;;6.07;;
25449;SDS011;13371;52.080;5.624;2023-03-21T06:51:44;10.90;;;5.50;;
25449;SDS011;13371;52.080;5.624;2023-03-21T06:54:09;12.07;;;5.60;;
25449;SDS011;13371;52.080;5.624;2023-03-21T06:56:35;12.43;;;6.20;;
25449;SDS011;13371;52.080;5.624;2023-03-21T06:59:01;12.30;;;5.93;;
25449;SDS011;13371;52.080;5.624;2023-03-21T07:01:27;10.80;;;5.75;;
25449;SDS011;13371;52.080;5.624;2023-03-21T07:03:54;12.60;;;6.47;;
25449;SDS011;13371;52.080;5.624;2023-03-21T07:06:21;11.90;;;4.88;;
25449;SDS011;13371;52.080;5.624;2023-03-21T07:08:47;9.70;;;5.25;;
25449;SDS011;13371;52.080;5.624;2023-03-21T07:11:12;12.60;;;5.28;;
25449;SDS011;13371;52.080;5.624;2023-03-21T07:13:38;13.43;;;5.50;;
25449;SDS011;13371;52.080;5.624;2023-03-21T07:16:04;11.88;;;5.35;;
25449;SDS011;13371;52.080;5.624;2023-03-21T07:18:30;13.20;;;6.13;;
25449;SDS011;13371;52.080;5.624;2023-03-21T07:20:56;12.80;;;5.82;;
25449;SDS011;13371;52.080;5.624;2023-03-21T07:23:22;14.48;;;6.10;;
25449;SDS011;13371;52.080;5.624;2023-03-21T07:25:50;13.13;;;5.57;;
25449;SDS011;13371;52.080;5.624;2023-03-21T07:28:16;12.52;;;4.90;;
25449;SDS011;13371;52.080;5.624;2023-03-21T07:30:42;16.27;;;5.55;;
25449;SDS011;13371;52.080;5.624;2023-03-21T07:33:09;13.88;;;6.15;;
25449;SDS011;13371;52.080;5.624;2023-03-21T07:35:35;13.73;;;6.35;;
25449;SDS011;13371;52.080;5.624;2023-03-21T07:38:02;9.55;;;4.82;;
25449;SDS011;13371;52.080;5.624;2023-03-21T07:40:28;9.70;;;5.43;;
25449;SDS011;13371;52.080;5.624;2023-03-21T07:42:54;8.20;;;4.65;;
25449;SDS011;13371;52.080;5.624;2023-03-21T07:45:20;12.98;;;5.93;;
25449;SDS011;13371;52.080;5.624;2023-03-21T07:47:47;15.57;;;5.88;;
25449;SDS011;13371;52.080;5.624;2023-03-21T07:50:13;12.20;;;4.90;;
25449;SDS011;13371;52.080;5.624;2023-03-21T07:52:39;12.07;;;5.38;;
25449;SDS011;13371;52.080;5.624;2023-03-21T07:55:05;12.32;;;5.60;;
25449;SDS011;13371;52.080;5.624;2023-03-21T07:57:31;14.50;;;5.72;;
25449;SDS011;13371;52.080;5.624;2023-03-21T07:59:56;14.45;;;5.15;;
25449;SDS011;13371;52.080;5.624;2023-03-21T08:02:22;10.85;;;4.93;;
25449;SDS011;13371;52.080;5.624;2023-03-21T08:04:48;17.83;;;5.75;;
25449;SDS011;13371;52.080;5.624;2023-03-21T08:07:13;17.83;;;4.97;;
25449;SDS011;13371;52.080;5.624;2023-03-21T08:09:39;8.27;;;4.50;;
25449;SDS011;13371;52.080;5.624;2023-03-21T08:12:06;14.18;;;4.93;;
25449;SDS011;13371;52.080;5.624;2023-03-21T08:14:32;10.32;;;5.55;;
25449;SDS011;13371;52.080;5.624;2023-03-21T08:16:59;8.98;;;5.50;;
25449;SDS011;13371;52.080;5.624;2023-03-21T08:19:25;11.07;;;4.60;;
25449;SDS011;13371;52.080;5.624;2023-03-21T08:21:51;12.48;;;4.88;;
25449;SDS011;13371;52.080;5.624;2023-03-21T08:24:17;8.80;;;4.22;;
25449;SDS011;13371;52.080;5.624;2023-03-21T08:26:43;11.00;;;5.22;;
25449;SDS011;13371;52.080;5.624;2023-03-21T08:29:10;9.45;;;3.70;;
25449;SDS011;13371;52.080;5.624;2023-03-21T08:31:39;11.65;;;4.53;;
25449;SDS011;13371;52.080;5.624;2023-03-21T08:34:05;9.05;;;4.97;;
25449;SDS011;13371;52.080;5.624;2023-03-21T08:36:32;13.73;;;4.50;;
25449;SDS011;13371;52.080;5.624;2023-03-21T08:39:00;12.90;;;4.32;;
25449;SDS011;13371;52.080;5.624;2023-03-21T08:41:29;12.85;;;5.45;;
25449;SDS011;13371;52.080;5.624;2023-03-21T08:44:02;7.97;;;3.70;;
25449;SDS011;13371;52.080;5.624;2023-03-21T08:46:29;11.60;;;5.30;;
25449;SDS011;13371;52.080;5.624;2023-03-21T08:48:54;11.70;;;4.82;;
25449;SDS011;13371;52.080;5.624;2023-03-21T08:51:20;8.88;;;4.50;;
25449;SDS011;13371;52.080;5.624;2023-03-21T08:53:46;10.80;;;4.25;;
25449;SDS011;13371;52.080;5.624;2023-03-21T08:56:13;9.20;;;3.95;;
25449;SDS011;13371;52.080;5.624;2023-03-21T08:58:38;7.63;;;4.15;;
25449;SDS011;13371;52.080;5.624;2023-03-21T09:01:04;7.68;;;3.85;;
25449;SDS011;13371;52.080;5.624;2023-03-21T09:03:35;9.32;;;3.92;;
25449;SDS011;13371;52.080;5.624;2023-03-21T09:06:02;12.10;;;3.72;;
25449;SDS011;13371;52.080;5.624;2023-03-21T09:08:27;8.73;;;3.67;;
25449;SDS011;13371;52.080;5.624;2023-03-21T09:10:53;9.43;;;4.07;;
25449;SDS011;13371;52.080;5.624;2023-03-21T09:13:19;7.25;;;3.40;;
25449;SDS011;13371;52.080;5.624;2023-03-21T09:15:46;8.68;;;3.80;;
25449;SDS011;13371;52.080;5.624;2023-03-21T09:18:12;6.45;;;3.13;;
25449;SDS011;13371;52.080;5.624;2023-03-21T09:20:40;7.70;;;3.50;;
25449;SDS011;13371;52.080;5.624;2023-03-21T09:23:07;9.57;;;4.03;;
25449;SDS011;13371;52.080;5.624;2023-03-21T09:25:34;7.60;;;3.85;;
25449;SDS011;13371;52.080;5.624;2023-03-21T09:28:00;14.65;;;4.45;;
25449;SDS011;13371;52.080;5.624;2023-03-21T09:30:29;10.65;;;4.47;;
25449;SDS011;13371;52.080;5.624;2023-03-21T09:32:55;7.45;;;3.17;;
25449;SDS011;13371;52.080;5.624;2023-03-21T09:35:22;7.97;;;3.90;;
25449;SDS011;13371;52.080;5.624;2023-03-21T09:37:48;8.57;;;3.88;;
25449;SDS011;13371;52.080;5.624;2023-03-21T09:45:34;7.53;;;4.07;;
25449;SDS011;13371;52.080;5.624;2023-03-21T09:48:04;8.63;;;3.97;;
25449;SDS011;13371;52.080;5.624;2023-03-21T09:50:41;8.30;;;3.75;;
25449;SDS011;13371;52.080;5.624;2023-03-21T09:55:37;7.50;;;3.67;;
25449;SDS011;13371;52.080;5.624;2023-03-21T10:03:46;10.82;;;3.78;;
25449;SDS011;13371;52.080;5.624;2023-03-21T10:06:17;8.10;;;4.50;;
25449;SDS011;13371;52.080;5.624;2023-03-21T10:11:18;9.93;;;4.63;;
25449;SDS011;13371;52.080;5.624;2023-03-21T10:13:56;8.30;;;3.45;;
25449;SDS011;13371;52.080;5.624;2023-03-21T10:16:31;7.60;;;3.45;;
25449;SDS011;13371;52.080;5.624;2023-03-21T10:19:02;5.43;;;3.60;;
25449;SDS011;13371;52.080;5.624;2023-03-21T10:24:01;8.27;;;3.20;;
25449;SDS011;13371;52.080;5.624;2023-03-21T10:26:27;11.15;;;4.35;;
25449;SDS011;13371;52.080;5.624;2023-03-21T10:28:54;10.68;;;4.20;;
25449;SDS011;13371;52.080;5.624;2023-03-21T10:31:23;9.07;;;3.53;;
25449;SDS011;13371;52.080;5.624;2023-03-21T10:33:50;8.25;;;3.80;;
25449;SDS011;13371;52.080;5.624;2023-03-21T10:36:20;6.68;;;4.10;;
25449;SDS011;13371;52.080;5.624;2023-03-21T10:38:50;8.27;;;4.32;;
25449;SDS011;13371;52.080;5.624;2023-03-21T10:41:19;14.07;;;3.92;;
25449;SDS011;13371;52.080;5.624;2023-03-21T10:43:45;11.18;;;3.83;;
25449;SDS011;13371;52.080;5.624;2023-03-21T10:46:27;8.07;;;3.53;;
25449;SDS011;13371;52.080;5.624;2023-03-21T10:48:53;7.18;;;3.58;;
25449;SDS011;13371;52.080;5.624;2023-03-21T10:51:19;8.93;;;3.65;;
25449;SDS011;13371;52.080;5.624;2023-03-21T10:53:55;7.70;;;3.45;;
25449;SDS011;13371;52.080;5.624;2023-03-21T10:56:29;6.00;;;3.40;;
25449;SDS011;13371;52.080;5.624;2023-03-21T10:58:59;7.25;;;4.15;;
25449;SDS011;13371;52.080;5.624;2023-03-21T11:01:37;6.38;;;3.08;;
25449;SDS011;13371;52.080;5.624;2023-03-21T11:04:07;7.35;;;3.47;;
25449;SDS011;13371;52.080;5.624;2023-03-21T11:06:39;6.70;;;3.78;;
25449;SDS011;13371;52.080;5.624;2023-03-21T11:09:13;7.53;;;3.10;;
25449;SDS011;13371;52.080;5.624;2023-03-21T11:14:47;7.47;;;3.45;;
25449;SDS011;13371;52.080;5.624;2023-03-21T11:19:49;11.52;;;3.92;;
25449;SDS011;13371;52.080;5.624;2023-03-21T11:22:23;9.05;;;2.88;;
25449;SDS011;13371;52.080;5.624;2023-03-21T11:25:00;6.95;;;3.30;;
25449;SDS011;13371;52.080;5.624;2023-03-21T11:27:30;11.07;;;4.00;;
25449;SDS011;13371;52.080;5.624;2023-03-21T11:29:56;5.80;;;2.65;;
25449;SDS011;13371;52.080;5.624;2023-03-21T11:32:25;6.47;;;3.03;;
25449;SDS011;13371;52.080;5.624;2023-03-21T11:35:04;7.50;;;4.07;;
25449;SDS011;13371;52.080;5.624;2023-03-21T11:37:42;7.32;;;3.67;;
25449;SDS011;13371;52.080;5.624;2023-03-21T11:42:49;9.63;;;3.40;;
25449;SDS011;13371;52.080;5.624;2023-03-21T11:45:18;4.60;;;2.92;;
25449;SDS011;13371;52.080;5.624;2023-03-21T11:47:50;5.40;;;2.40;;
25449;SDS011;13371;52.080;5.624;2023-03-21T11:50:34;4.72;;;2.92;;
25449;SDS011;13371;52.080;5.624;2023-03-21T12:01:59;6.85;;;4.07;;
25449;SDS011;13371;52.080;5.624;2023-03-21T12:10:00;11.30;;;3.15;;
25449;SDS011;13371;52.080;5.624;2023-03-21T12:12:53;5.70;;;3.20;;
25449;SDS011;13371;52.080;5.624;2023-03-21T12:15:33;5.28;;;2.67;;
25449;SDS011;13371;52.080;5.624;2023-03-21T12:23:53;7.82;;;3.03;;
25449;SDS011;13371;52.080;5.624;2023-03-21T12:26:57;8.35;;;3.20;;
25449;SDS011;13371;52.080;5.624;2023-03-21T12:35:20;6.35;;;3.10;;
25449;SDS011;13371;52.080;5.624;2023-03-21T12:38:09;6.50;;;3.15;;
25449;SDS011;13371;52.080;5.624;2023-03-21T12:43:38;11.10;;;3.45;;
25449;SDS011;13371;52.080;5.624;2023-03-21T12:46:23;8.02;;;3.42;;
25449;SDS011;13371;52.080;5.624;2023-03-21T12:49:00;5.30;;;2.97;;
25449;SDS011;13371;52.080;5.624;2023-03-21T12:51:32;6.18;;;3.63;;
25449;SDS011;13371;52.080;5.624;2023-03-21T12:54:07;6.22;;;3.10;;
25449;SDS011;13371;52.080;5.624;2023-03-21T12:57:06;7.38;;;3.90;;
25449;SDS011;13371;52.080;5.624;2023-03-21T12:59:55;15.43;;;4.00;;
25449;SDS011;13371;52.080;5.624;2023-03-21T13:02:49;6.88;;;3.63;;
25449;SDS011;13371;52.080;5.624;2023-03-21T13:05:30;7.57;;;3.03;;
25449;SDS011;13371;52.080;5.624;2023-03-21T13:10:49;6.88;;;3.70;;
25449;SDS011;13371;52.080;5.624;2023-03-21T13:21:53;5.78;;;3.00;;
25449;SDS011;13371;52.080;5.624;2023-03-21T13:24:40;12.02;;;3.25;;
25449;SDS011;13371;52.080;5.624;2023-03-21T13:27:23;8.35;;;3.78;;
25449;SDS011;13371;52.080;5.624;2023-03-21T13:29:49;6.15;;;3.17;;
25449;SDS011;13371;52.080;5.624;2023-03-21T13:32:27;5.50;;;3.60;;
25449;SDS011;13371;52.080;5.624;2023-03-21T13:38:02;4.33;;;2.93;;
25449;SDS011;13371;52.080;5.624;2023-03-21T13:41:19;7.20;;;3.55;;
25449;SDS011;13371;52.080;5.624;2023-03-21T13:43:44;8.75;;;4.03;;
25449;SDS011;13371;52.080;5.624;2023-03-21T13:58:58;6.95;;;4.57;;
25449;SDS011;13371;52.080;5.624;2023-03-21T14:01:26;10.68;;;5.20;;
25449;SDS011;13371;52.080;5.624;2023-03-21T14:06:57;6.88;;;4.30;;
25449;SDS011;13371;52.080;5.624;2023-03-21T14:09:31;8.77;;;4.45;;
25449;SDS011;13371;52.080;5.624;2023-03-21T14:12:00;8.48;;;4.40;;
25449;SDS011;13371;52.080;5.624;2023-03-21T14:14:32;10.68;;;5.03;;
25449;SDS011;13371;52.080;5.624;2023-03-21T14:17:10;9.23;;;4.95;;
25449;SDS011;13371;52.080;5.624;2023-03-21T14:19:36;7.80;;;4.30;;
25449;SDS011;13371;52.080;5.624;2023-03-21T14:22:02;9.05;;;4.05;;
25449;SDS011;13371;52.080;5.624;2023-03-21T14:24:33;8.05;;;3.97;;
25449;SDS011;13371;52.080;5.624;2023-03-21T14:26:59;4.43;;;2.85;;
25449;SDS011;13371;52.080;5.624;2023-03-21T14:29:28;8.73;;;4.00;;
25449;SDS011;13371;52.080;5.624;2023-03-21T14:31:56;4.78;;;3.08;;
25449;SDS011;13371;52.080;5.624;2023-03-21T14:34:24;6.80;;;3.55;;
25449;SDS011;13371;52.080;5.624;2023-03-21T14:36:51;5.13;;;3.53;;
25449;SDS011;13371;52.080;5.624;2023-03-21T14:39:21;7.78;;;4.55;;
25449;SDS011;13371;52.080;5.624;2023-03-21T14:41:55;7.35;;;3.92;;
25449;SDS011;13371;52.080;5.624;2023-03-21T14:44:31;6.28;;;3.50;;
25449;SDS011;13371;52.080;5.624;2023-03-21T14:47:02;5.78;;;3.63;;
25449;SDS011;13371;52.080;5.624;2023-03-21T14:49:35;8.55;;;4.00;;
25449;SDS011;13371;52.080;5.624;2023-03-21T14:52:03;6.18;;;3.95;;
25449;SDS011;13371;52.080;5.624;2023-03-21T14:54:31;7.30;;;4.35;;
25449;SDS011;13371;52.080;5.624;2023-03-21T14:56:59;8.77;;;4.18;;
25449;SDS011;13371;52.080;5.624;2023-03-21T14:59:32;9.60;;;4.15;;
25449;SDS011;13371;52.080;5.624;2023-03-21T15:02:02;9.20;;;4.45;;
25449;SDS011;13371;52.080;5.624;2023-03-21T15:04:35;6.97;;;4.50;;
25449;SDS011;13371;52.080;5.624;2023-03-21T15:07:01;9.82;;;5.13;;
25449;SDS011;13371;52.080;5.624;2023-03-21T15:09:30;6.82;;;3.70;;
25449;SDS011;13371;52.080;5.624;2023-03-21T15:11:59;6.28;;;4.00;;
25449;SDS011;13371;52.080;5.624;2023-03-21T15:14:30;9.30;;;4.45;;
25449;SDS011;13371;52.080;5.624;2023-03-21T15:16:59;6.63;;;4.20;;
25449;SDS011;13371;52.080;5.624;2023-03-21T15:19:29;8.10;;;4.68;;
25449;SDS011;13371;52.080;5.624;2023-03-21T15:22:44;6.03;;;4.07;;
25449;SDS011;13371;52.080;5.624;2023-03-21T15:24:57;7.68;;;4.30;;
25449;SDS011;13371;52.080;5.624;2023-03-21T15:27:30;6.07;;;4.28;;
25449;SDS011;13371;52.080;5.624;2023-03-21T15:29:59;6.85;;;4.00;;
25449;SDS011;13371;52.080;5.624;2023-03-21T15:32:26;8.90;;;4.03;;
25449;SDS011;13371;52.080;5.624;2023-03-21T15:34:53;7.80;;;4.50;;
25449;SDS011;13371;52.080;5.624;2023-03-21T15:37:27;11.25;;;4.20;;
25449;SDS011;13371;52.080;5.624;2023-03-21T15:40:05;6.85;;;3.78;;
25449;SDS011;13371;52.080;5.624;2023-03-21T15:42:38;8.18;;;4.05;;
25449;SDS011;13371;52.080;5.624;2023-03-21T15:50:26;11.07;;;4.35;;
25449;SDS011;13371;52.080;5.624;2023-03-21T15:53:04;9.45;;;4.40;;
25449;SDS011;13371;52.080;5.624;2023-03-21T15:55:56;6.50;;;4.20;;
25449;SDS011;13371;52.080;5.624;2023-03-21T15:58:22;9.85;;;3.97;;
25449;SDS011;13371;52.080;5.624;2023-03-21T16:00:51;8.40;;;3.50;;
25449;SDS011;13371;52.080;5.624;2023-03-21T16:03:23;5.57;;;3.80;;
25449;SDS011;13371;52.080;5.624;2023-03-21T16:06:04;9.52;;;4.60;;
25449;SDS011;13371;52.080;5.624;2023-03-21T16:08:41;9.38;;;4.00;;
25449;SDS011;13371;52.080;5.624;2023-03-21T16:13:41;5.97;;;3.97;;
25449;SDS011;13371;52.080;5.624;2023-03-21T16:16:08;11.68;;;4.63;;
25449;SDS011;13371;52.080;5.624;2023-03-21T16:18:41;6.10;;;3.83;;
25449;SDS011;13371;52.080;5.624;2023-03-21T16:21:14;6.47;;;4.80;;
25449;SDS011;13371;52.080;5.624;2023-03-21T16:23:42;6.97;;;4.18;;
25449;SDS011;13371;52.080;5.624;2023-03-21T16:26:27;8.45;;;4.28;;
25449;SDS011;13371;52.080;5.624;2023-03-21T16:28:55;11.48;;;4.28;;
25449;SDS011;13371;52.080;5.624;2023-03-21T16:31:23;11.63;;;5.07;;
25449;SDS011;13371;52.080;5.624;2023-03-21T16:33:50;8.68;;;4.05;;
25449;SDS011;13371;52.080;5.624;2023-03-21T16:36:17;9.93;;;5.32;;
25449;SDS011;13371;52.080;5.624;2023-03-21T16:38:57;7.20;;;4.50;;
25449;SDS011;13371;52.080;5.624;2023-03-21T16:41:24;6.13;;;4.28;;
25449;SDS011;13371;52.080;5.624;2023-03-21T16:43:51;11.05;;;4.57;;
25449;SDS011;13371;52.080;5.624;2023-03-21T16:46:18;8.02;;;4.63;;
25449;SDS011;13371;52.080;5.624;2023-03-21T16:48:49;10.45;;;5.38;;
25449;SDS011;13371;52.080;5.624;2023-03-21T16:51:18;7.07;;;4.90;;
25449;SDS011;13371;52.080;5.624;2023-03-21T16:53:46;8.38;;;4.68;;
25449;SDS011;13371;52.080;5.624;2023-03-21T16:56:16;9.38;;;5.30;;
25449;SDS011;13371;52.080;5.624;2023-03-21T16:58:44;9.80;;;4.28;;
25449;SDS011;13371;52.080;5.624;2023-03-21T17:01:11;7.85;;;4.55;;